createdAt,value
2018-04-11T00:00:52.266Z,101049.69
2018-04-11T00:03:19.935Z,101057.33
2018-04-11T00:05:47.598Z,101058.47
2018-04-11T00:08:15.357Z,101041.81
2018-04-11T00:10:42.987Z,101055.41
2018-04-11T00:13:09.878Z,101056.15
2018-04-11T00:15:36.801Z,101073.42
2018-04-11T00:18:03.692Z,101065.80
2018-04-11T00:20:30.590Z,101064.28
2018-04-11T00:22:57.859Z,101067.73
2018-04-11T00:25:24.790Z,101063.81
2018-04-11T00:27:51.656Z,101069.12
2018-04-11T00:30:19.609Z,101071.14
2018-04-11T00:32:47.265Z,101067.95
2018-04-11T00:35:14.141Z,101072.19
2018-04-11T00:37:41.382Z,101069.75
2018-04-11T00:40:09.005Z,101062.20
2018-04-11T00:42:35.969Z,101068.39
2018-04-11T00:45:03.240Z,101067.09
2018-04-11T00:47:30.857Z,101064.24
2018-04-11T00:49:57.733Z,101071.04
2018-04-11T00:52:25.132Z,101068.66
2018-04-11T00:54:52.003Z,101090.19
2018-04-11T00:57:18.894Z,101081.38
2018-04-11T00:59:46.794Z,101080.15
2018-04-11T01:02:13.672Z,101073.14
2018-04-11T01:04:40.553Z,101074.72
2018-04-11T01:07:08.422Z,101071.88
2018-04-11T01:09:36.141Z,101072.48
2018-04-11T01:12:03.172Z,101077.17
2018-04-11T01:14:30.079Z,101075.55
2018-04-11T01:16:57.697Z,101073.53
2018-04-11T01:19:24.570Z,101075.35
2018-04-11T01:21:51.492Z,101070.34
2018-04-11T01:24:18.409Z,101077.94
2018-04-11T01:26:45.345Z,101074.11
2018-04-11T01:29:12.618Z,101066.56
2018-04-11T01:31:39.533Z,101066.90
2018-04-11T01:34:07.198Z,101070.66
2018-04-11T01:36:34.137Z,101069.70
2018-04-11T01:39:01.030Z,101063.06
2018-04-11T01:41:27.911Z,101067.75
2018-04-11T01:43:55.820Z,101072.92
2018-04-11T01:46:22.741Z,101067.22
2018-04-11T01:48:50.399Z,101067.06
2018-04-11T01:51:18.118Z,101062.59
2018-04-11T01:53:45.039Z,101057.95
2018-04-11T01:56:11.907Z,101044.31
2018-04-11T01:58:38.834Z,101047.19
2018-04-11T02:01:05.933Z,101048.34
2018-04-11T02:03:33.003Z,101058.72
2018-04-11T02:06:00.628Z,101059.27
2018-04-11T02:08:27.546Z,101067.41
2018-04-11T02:10:54.612Z,101062.05
2018-04-11T02:13:21.489Z,101067.84
2018-04-11T02:15:48.698Z,101074.44
2018-04-11T02:18:15.613Z,101077.22
2018-04-11T02:20:43.225Z,101074.84
2018-04-11T02:23:10.192Z,101071.72
2018-04-11T02:25:37.064Z,101073.41
2018-04-11T02:28:05.029Z,101076.40
2018-04-11T02:30:32.649Z,101076.40
2018-04-11T02:32:59.529Z,101083.25
2018-04-11T02:35:27.503Z,101082.79
2018-04-11T02:37:55.133Z,101085.02
2018-04-11T02:40:22.005Z,101079.47
2018-04-11T02:42:49.315Z,101078.83
2018-04-11T02:45:16.188Z,101080.32
2018-04-11T02:47:43.078Z,101071.77
2018-04-11T02:50:10.067Z,101070.41
2018-04-11T02:52:36.958Z,101070.90
2018-04-11T02:55:04.595Z,101077.54
2018-04-11T02:57:32.524Z,101071.13
2018-04-11T02:59:59.438Z,101082.17
2018-04-11T03:02:26.362Z,101097.84
2018-04-11T03:04:53.295Z,101083.74
2018-04-11T03:07:20.177Z,101082.45
2018-04-11T03:09:47.808Z,101090.00
2018-04-11T03:12:15.298Z,101090.87
2018-04-11T03:14:51.114Z,101093.65
2018-04-11T03:17:18.543Z,101098.80
2018-04-11T03:19:45.409Z,101107.34
2018-04-11T03:22:12.293Z,101105.80
2018-04-11T03:24:40.252Z,101101.26
2018-04-11T03:27:07.162Z,101097.19
2018-04-11T03:29:34.054Z,101087.94
2018-04-11T03:32:02.023Z,101076.20
2018-04-11T03:34:29.684Z,101064.11
2018-04-11T03:36:57.314Z,101069.81
2018-04-11T03:39:24.599Z,101066.69
2018-04-11T03:41:52.250Z,101088.82
2018-04-11T03:44:19.130Z,101104.23
2018-04-11T03:46:46.062Z,101119.44
2018-04-11T03:49:13.758Z,101118.02
2018-04-11T03:51:41.014Z,101115.94
2018-04-11T03:54:07.894Z,101113.22
2018-04-11T03:56:34.780Z,101114.51
2018-04-11T03:59:02.016Z,101118.98
2018-04-11T04:01:29.647Z,101116.59
2018-04-11T04:03:56.574Z,101114.02
2018-04-11T04:06:23.773Z,101129.09
2018-04-11T04:08:50.685Z,101135.41
2018-04-11T04:11:17.585Z,101132.82
2018-04-11T04:14:03.735Z,101136.15
2018-04-11T04:16:49.052Z,101139.28
2018-04-11T04:19:34.932Z,101127.98
2018-04-11T04:22:02.584Z,101128.74
2018-04-11T04:24:30.266Z,101129.55
2018-04-11T04:26:58.121Z,101123.86
2018-04-11T04:29:25.034Z,101128.81
2018-04-11T04:31:51.920Z,101121.89
2018-04-11T04:34:18.890Z,101134.09
2018-04-11T04:36:45.776Z,101123.62
2018-04-11T04:39:12.642Z,101116.64
2018-04-11T04:41:39.906Z,101113.56
2018-04-11T04:44:07.576Z,101115.73
2018-04-11T04:46:35.293Z,101126.14
2018-04-11T04:49:02.266Z,101125.63
2018-04-11T04:51:29.197Z,101120.88
2018-04-11T04:53:56.069Z,101122.03
2018-04-11T04:56:23.031Z,101127.53
2018-04-11T04:58:50.680Z,101134.22
2018-04-11T05:01:18.350Z,101131.20
2018-04-11T05:03:46.311Z,101145.66
2018-04-11T05:06:13.177Z,101153.17
2018-04-11T05:08:40.831Z,101156.39
2018-04-11T05:11:08.817Z,101158.66
2018-04-11T05:13:36.086Z,101158.91
2018-04-11T05:16:03.147Z,101157.45
2018-04-11T05:18:30.351Z,101155.97
2018-04-11T05:20:57.268Z,101163.95
2018-04-11T05:23:24.491Z,101162.28
2018-04-11T05:25:51.476Z,101157.45
2018-04-11T05:28:18.405Z,101158.38
2018-04-11T05:30:45.275Z,101156.96
2018-04-11T05:33:12.434Z,101158.01
2018-04-11T05:35:39.369Z,101168.33
2018-04-11T05:38:06.290Z,101171.12
2018-04-11T05:40:33.538Z,101177.38
2018-04-11T05:43:00.416Z,101185.65
2018-04-11T05:45:27.300Z,101182.93
2018-04-11T05:47:54.308Z,101180.81
2018-04-11T05:50:21.232Z,101186.82
2018-04-11T05:52:48.148Z,101185.94
2018-04-11T05:55:15.018Z,101193.99
2018-04-11T05:57:41.907Z,101201.69
2018-04-11T06:00:09.893Z,101193.73
2018-04-11T06:02:37.529Z,101200.33
2018-04-11T06:05:04.483Z,101201.33
2018-04-11T06:07:31.653Z,101201.48
2018-04-11T06:09:59.262Z,101207.05
2018-04-11T06:12:26.171Z,101216.41
2018-04-11T06:14:53.402Z,101207.33
2018-04-11T06:17:21.119Z,101209.24
2018-04-11T06:19:47.999Z,101199.75
2018-04-11T06:22:14.915Z,101200.14
2018-04-11T06:24:41.801Z,101196.29
2018-04-11T06:27:09.421Z,101205.05
2018-04-11T06:29:36.538Z,101211.05
2018-04-11T06:32:03.517Z,101214.97
2018-04-11T06:34:30.393Z,101216.09
2018-04-11T06:36:57.653Z,101217.13
2018-04-11T06:39:24.525Z,101221.64
2018-04-11T06:41:51.446Z,101231.43
2018-04-11T06:44:19.133Z,101232.18
2018-04-11T06:46:46.026Z,101226.11
2018-04-11T06:49:13.214Z,101228.41
2018-04-11T06:51:40.835Z,101232.77
2018-04-11T06:54:07.738Z,101232.15
2018-04-11T06:56:35.010Z,101217.95
2018-04-11T06:59:01.894Z,101226.48
2018-04-11T07:01:28.811Z,101224.36
2018-04-11T07:03:56.016Z,101222.10
2018-04-11T07:06:23.625Z,101235.99
2018-04-11T07:08:50.521Z,101232.18
2018-04-11T07:11:18.457Z,101238.06
2018-04-11T07:13:46.220Z,101227.55
2018-04-11T07:16:13.096Z,101216.84
2018-04-11T07:18:40.458Z,101235.06
2018-04-11T07:21:07.370Z,101246.63
2018-04-11T07:23:34.240Z,101240.69
2018-04-11T07:26:01.266Z,101253.02
2018-04-11T07:28:28.121Z,101255.84
2018-04-11T07:30:55.042Z,101250.44
2018-04-11T07:33:21.925Z,101253.42
2018-04-11T07:35:49.092Z,101251.90
2018-04-11T07:38:17.066Z,101241.85
2018-04-11T07:40:44.698Z,101238.70
2018-04-11T07:43:11.623Z,101257.16
2018-04-11T07:45:38.768Z,101255.98
2018-04-11T07:48:05.687Z,101255.81
2018-04-11T07:50:32.582Z,101247.55
2018-04-11T07:52:59.752Z,101237.16
2018-04-11T07:55:26.626Z,101254.98
2018-04-11T07:57:53.540Z,101260.84
2018-04-11T08:00:20.592Z,101268.21
2018-04-11T08:02:47.478Z,101271.13
2018-04-11T08:05:14.414Z,101271.69
2018-04-11T08:07:41.330Z,101274.55
2018-04-11T08:10:09.022Z,101263.54
2018-04-11T08:12:36.263Z,101260.47
2018-04-11T08:15:03.975Z,101257.80
2018-04-11T08:17:30.864Z,101255.63
2018-04-11T08:19:58.888Z,101260.05
2018-04-11T08:22:26.497Z,101268.13
2018-04-11T08:24:54.159Z,101277.22
2018-04-11T08:27:21.861Z,101268.78
2018-04-11T08:29:48.814Z,101267.11
2018-04-11T08:32:15.736Z,101271.97
2018-04-11T08:34:42.656Z,101260.34
2018-04-11T08:37:09.554Z,101267.16
2018-04-11T08:39:36.583Z,101268.78
2018-04-11T08:42:04.642Z,101268.44
2018-04-11T08:44:32.262Z,101273.84
2018-04-11T08:46:59.144Z,101272.84
2018-04-11T08:49:27.097Z,101279.39
2018-04-11T08:51:54.010Z,101274.34
2018-04-11T08:54:20.903Z,101267.27
2018-04-11T08:56:48.564Z,101277.62
2018-04-11T08:59:16.206Z,101279.14
2018-04-11T09:01:43.250Z,101287.73
2018-04-11T09:04:10.174Z,101287.39
2018-04-11T09:06:37.078Z,101286.47
2018-04-11T09:09:05.086Z,101275.91
2018-04-11T09:11:31.977Z,101275.64
2018-04-11T09:13:58.929Z,101272.72
2018-04-11T09:16:25.901Z,101274.45
2018-04-11T09:18:52.805Z,101271.25
2018-04-11T09:21:19.851Z,101269.91
2018-04-11T09:23:46.832Z,101256.53
2018-04-11T09:26:14.500Z,101256.27
2018-04-11T09:28:42.128Z,101265.19
2018-04-11T09:31:09.503Z,101262.39
2018-04-11T09:33:37.245Z,101264.07
2018-04-11T09:36:04.180Z,101270.52
2018-04-11T09:38:31.411Z,101270.42
2018-04-11T09:40:58.302Z,101267.39
2018-04-11T09:43:25.232Z,101257.17
2018-04-11T09:45:52.522Z,101260.92
2018-04-11T09:48:20.163Z,101261.11
2018-04-11T09:50:47.057Z,101256.64
2018-04-11T09:53:14.303Z,101249.73
2018-04-11T09:55:41.274Z,101245.24
2018-04-11T09:58:08.178Z,101237.58
2018-04-11T10:00:35.990Z,101241.84
2018-04-11T10:03:04.844Z,101236.94
2018-04-11T10:05:32.498Z,101234.56
2018-04-11T10:08:01.212Z,101241.98
2018-04-11T10:10:28.137Z,101233.78
2018-04-11T10:12:55.798Z,101237.16
2018-04-11T10:15:23.558Z,101242.84
2018-04-11T10:17:51.160Z,101222.27
2018-04-11T10:20:18.039Z,101233.19
2018-04-11T10:22:45.343Z,101211.31
2018-04-11T10:25:12.256Z,101210.70
2018-04-11T10:27:39.133Z,101207.27
2018-04-11T10:30:07.270Z,101208.67
2018-04-11T10:32:34.150Z,101211.67
2018-04-11T10:35:01.073Z,101208.12
2018-04-11T10:37:28.822Z,101206.98
2018-04-11T10:39:55.683Z,101206.72
2018-04-11T10:42:23.306Z,101207.41
2018-04-11T10:44:50.228Z,101216.05
2018-04-11T10:47:17.113Z,101213.43
2018-04-11T10:49:43.989Z,101222.88
2018-04-11T10:52:11.734Z,101208.07
2018-04-11T10:54:38.628Z,101216.55
2018-04-11T10:57:05.519Z,101210.70
2018-04-11T10:59:32.628Z,101213.65
2018-04-11T11:01:59.595Z,101232.28
2018-04-11T11:04:26.504Z,101208.56
2018-04-11T11:06:53.537Z,101208.56
2018-04-11T11:09:21.177Z,101195.54
2018-04-11T11:11:48.046Z,101192.18
2018-04-11T11:14:15.017Z,101191.72
2018-04-11T11:16:41.896Z,101181.00
2018-04-11T11:19:08.781Z,101192.00
2018-04-11T11:21:36.637Z,101196.89
2018-04-11T11:24:04.318Z,101188.31
2018-04-11T11:26:31.976Z,101190.38
2018-04-11T11:28:59.650Z,101192.74
2018-04-11T11:31:26.521Z,101197.20
2018-04-11T11:33:53.400Z,101176.84
2018-04-11T11:36:20.320Z,101185.83
2018-04-11T11:38:47.255Z,101186.27
2018-04-11T11:41:14.209Z,101182.53
2018-04-11T11:43:41.350Z,101180.61
2018-04-11T11:46:08.280Z,101182.61
2018-04-11T11:48:35.153Z,101177.04
2018-04-11T11:51:02.202Z,101174.84
2018-04-11T11:53:29.073Z,101164.56
2018-04-11T11:55:55.984Z,101165.91
2018-04-11T11:58:23.088Z,101170.40
2018-04-11T12:00:49.961Z,101169.56
2018-04-11T12:03:16.852Z,101161.39
2018-04-11T12:05:43.881Z,101168.64
2018-04-11T12:08:10.799Z,101172.33
2018-04-11T12:10:38.408Z,101182.53
2018-04-11T12:13:05.414Z,101181.95
2018-04-11T12:15:32.326Z,101177.66
2018-04-11T12:17:59.203Z,101171.64
2018-04-11T12:20:26.122Z,101181.56
2018-04-11T12:22:53.004Z,101173.51
2018-04-11T12:25:19.875Z,101172.60
2018-04-11T12:27:46.848Z,101176.62
2018-04-11T12:30:13.719Z,101183.19
2018-04-11T12:32:41.330Z,101173.16
2018-04-11T12:35:08.418Z,101179.91
2018-04-11T12:37:35.366Z,101179.24
2018-04-11T12:40:03.044Z,101164.64
2018-04-11T12:42:30.884Z,101163.25
2018-04-11T12:44:57.800Z,101163.66
2018-04-11T12:47:24.660Z,101164.81
2018-04-11T12:49:51.760Z,101164.33
2018-04-11T12:52:18.638Z,101162.69
2018-04-11T12:54:45.550Z,101160.62
2018-04-11T12:57:12.671Z,101160.25
2018-04-11T12:59:39.594Z,101159.05
2018-04-11T13:02:06.486Z,101153.70
2018-04-11T13:04:34.245Z,101148.80
2018-04-11T13:07:01.858Z,101146.62
2018-04-11T13:09:28.737Z,101148.64
2018-04-11T13:11:55.693Z,101150.28
2018-04-11T13:14:22.669Z,101144.30
2018-04-11T13:16:49.536Z,101139.33
2018-04-11T13:19:16.564Z,101140.86
2018-04-11T13:21:43.531Z,101154.97
2018-04-11T13:24:10.439Z,101141.81
2018-04-11T13:26:38.179Z,101142.22
2018-04-11T13:29:05.052Z,101133.52
2018-04-11T13:31:31.921Z,101138.70
2018-04-11T13:33:59.109Z,101137.64
2018-04-11T13:36:25.959Z,101124.56
2018-04-11T13:38:52.876Z,101136.31
2018-04-11T13:41:20.024Z,101134.38
2018-04-11T13:43:47.084Z,101120.05
2018-04-11T13:46:14.062Z,101123.59
2018-04-11T13:48:40.980Z,101123.83
2018-04-11T13:51:07.853Z,101124.33
2018-04-11T13:53:34.775Z,101120.67
2018-04-11T13:56:02.005Z,101111.92
2018-04-11T13:58:28.892Z,101115.75
2018-04-11T14:00:55.806Z,101117.73
2018-04-11T14:03:22.742Z,101109.05
2018-04-11T14:05:49.659Z,101113.88
2018-04-11T14:08:17.299Z,101115.23
2018-04-11T14:10:44.278Z,101113.30
2018-04-11T14:13:11.193Z,101120.19
2018-04-11T14:15:38.864Z,101120.41
2018-04-11T14:18:05.838Z,101123.27
2018-04-11T14:20:32.713Z,101111.80
2018-04-11T14:22:59.590Z,101122.27
2018-04-11T14:25:26.606Z,101119.03
2018-04-11T14:27:53.470Z,101121.87
2018-04-11T14:30:20.385Z,101119.36
2018-04-11T14:32:47.420Z,101121.98
2018-04-11T14:35:14.341Z,101120.35
2018-04-11T14:37:42.345Z,101122.43
2018-04-11T14:40:09.302Z,101113.98
2018-04-11T14:42:36.250Z,101098.81
2018-04-11T14:45:03.332Z,101110.95
2018-04-11T14:47:30.295Z,101107.78
2018-04-11T14:49:57.919Z,101107.95
2018-04-11T14:52:24.780Z,101114.98
2018-04-11T14:54:51.792Z,101115.95
2018-04-11T14:57:18.682Z,101126.95
2018-04-11T14:59:45.548Z,101118.59
2018-04-11T15:02:13.302Z,101118.51
2018-04-11T15:04:40.178Z,101128.19
2018-04-11T15:07:07.085Z,101125.25
2018-04-11T15:09:34.178Z,101125.23
2018-04-11T15:12:01.072Z,101114.93
2018-04-11T15:14:28.021Z,101129.79
2018-04-11T15:16:55.227Z,101123.30
2018-04-11T15:19:22.083Z,101121.70
2018-04-11T15:21:48.987Z,101126.31
2018-04-11T15:24:16.649Z,101130.48
2018-04-11T15:26:44.251Z,101130.77
2018-04-11T15:29:11.128Z,101123.03
2018-04-11T15:31:38.097Z,101129.20
2018-04-11T15:34:05.733Z,101135.60
2018-04-11T15:36:32.610Z,101126.41
2018-04-11T15:39:00.478Z,101127.40
2018-04-11T15:41:28.097Z,101133.36
2018-04-11T15:43:54.961Z,101133.11
2018-04-11T15:46:37.269Z,101146.82
2018-04-11T15:49:04.165Z,101134.64
2018-04-11T15:51:31.067Z,101118.29
2018-04-11T15:53:58.230Z,101142.46
2018-04-11T15:56:25.897Z,101130.33
2018-04-11T15:58:52.824Z,101136.78
2018-04-11T16:01:19.875Z,101129.00
2018-04-11T16:03:46.804Z,101141.55
2018-04-11T16:06:13.681Z,101139.73
2018-04-11T16:08:41.348Z,101144.45
2018-04-11T16:11:08.998Z,101146.98
2018-04-11T16:13:36.665Z,101138.23
2018-04-11T16:16:04.675Z,101134.97
2018-04-11T16:18:31.536Z,101143.15
2018-04-11T16:20:58.481Z,101145.29
2018-04-11T16:23:25.427Z,101143.84
2018-04-11T16:25:52.300Z,101150.80
2018-04-11T16:28:19.236Z,101134.31
2018-04-11T16:30:46.211Z,101132.98
2018-04-11T16:33:13.900Z,101133.67
2018-04-11T16:35:40.764Z,101136.21
2018-04-11T16:38:07.773Z,101132.65
2018-04-11T16:40:35.457Z,101132.53
2018-04-11T16:43:02.326Z,101139.13
2018-04-11T16:45:29.574Z,101142.13
2018-04-11T16:47:56.528Z,101145.06
2018-04-11T16:50:23.469Z,101135.97
2018-04-11T16:52:50.685Z,101147.11
2018-04-11T16:55:18.345Z,101143.91
2018-04-11T16:57:45.973Z,101154.12
2018-04-11T17:00:12.989Z,101145.87
2018-04-11T17:02:39.911Z,101149.28
2018-04-11T17:05:07.544Z,101149.53
2018-04-11T17:07:34.709Z,101153.62
2018-04-11T17:10:02.426Z,101159.30
2018-04-11T17:12:29.387Z,101165.02
2018-04-11T17:15:00.387Z,101171.19
2018-04-11T17:17:27.312Z,101177.78
2018-04-11T17:19:54.981Z,101168.73
2018-04-11T17:22:41.326Z,101172.27
2018-04-11T17:25:26.735Z,101173.52
2018-04-11T17:28:12.134Z,101170.57
2018-04-11T17:30:58.211Z,101164.14
2018-04-11T17:33:25.160Z,101161.64
2018-04-11T17:38:25.528Z,101159.89
2018-04-11T17:40:53.179Z,101157.38
2018-04-11T17:43:20.046Z,101165.56
2018-04-11T17:45:47.804Z,101174.80
2018-04-11T17:48:15.481Z,101165.26
2018-04-11T17:50:42.421Z,101160.98
2018-04-11T17:53:10.247Z,101158.69
2018-04-11T17:55:37.137Z,101157.84
2018-04-11T17:58:04.804Z,101162.69
2018-04-11T18:00:31.717Z,101171.43
2018-04-11T18:02:58.594Z,101168.09
2018-04-11T18:05:25.477Z,101168.84
2018-04-11T18:07:52.670Z,101145.82
2018-04-11T18:10:19.544Z,101159.22
2018-04-11T18:12:46.425Z,101168.71
2018-04-11T18:15:13.510Z,101160.48
2018-04-11T18:17:40.386Z,101164.92
2018-04-11T18:20:07.266Z,101169.56
2018-04-11T18:22:34.290Z,101166.13
2018-04-11T18:25:01.200Z,101174.41
2018-04-11T18:27:28.815Z,101173.02
2018-04-11T18:29:55.925Z,101176.86
2018-04-11T18:32:22.832Z,101173.86
2018-04-11T18:34:49.722Z,101169.56
2018-04-11T18:37:17.008Z,101171.19
2018-04-11T18:39:43.946Z,101178.30
2018-04-11T18:42:10.837Z,101186.91
2018-04-11T18:44:38.534Z,101177.40
2018-04-11T18:47:06.143Z,101185.67
2018-04-11T18:49:33.036Z,101177.17
2018-04-11T18:51:59.980Z,101185.04
2018-04-11T18:54:27.592Z,101192.75
2018-04-11T18:56:54.461Z,101190.59
2018-04-11T18:59:21.367Z,101186.17
2018-04-11T19:01:48.257Z,101184.20
2018-04-11T19:04:15.137Z,101183.84
2018-04-11T19:06:42.195Z,101181.39
2018-04-11T19:09:09.067Z,101191.25
2018-04-11T19:11:37.412Z,101192.61
2018-04-11T19:14:04.353Z,101195.12
2018-04-11T19:16:31.288Z,101196.75
2018-04-11T19:18:58.213Z,101199.39
2018-04-11T19:21:25.252Z,101194.41
2018-04-11T19:23:52.133Z,101188.35
2018-04-11T19:26:19.745Z,101186.37
2018-04-11T19:28:47.238Z,101188.63
2018-04-11T19:31:14.920Z,101184.84
2018-04-11T19:33:41.830Z,101190.50
2018-04-11T19:36:08.894Z,101186.50
2018-04-11T19:38:36.546Z,101188.05
2018-04-11T19:41:03.505Z,101202.87
2018-04-11T19:43:31.334Z,101188.83
2018-04-11T19:45:58.258Z,101201.12
2018-04-11T19:48:25.173Z,101195.05
2018-04-11T19:50:52.977Z,101203.16
2018-04-11T19:53:19.853Z,101200.78
2018-04-11T19:55:46.753Z,101201.52
2018-04-11T19:58:13.880Z,101198.12
2018-04-11T20:00:41.488Z,101207.77
2018-04-11T20:03:08.377Z,101202.66
2018-04-11T20:05:35.281Z,101202.48
2018-04-11T20:08:02.200Z,101206.00
2018-04-11T20:10:29.074Z,101201.77
2018-04-11T20:12:56.279Z,101200.07
2018-04-11T20:15:23.984Z,101196.45
2018-04-11T20:17:50.955Z,101193.45
2018-04-11T20:20:17.921Z,101206.94
2018-04-11T20:22:44.805Z,101202.61
2018-04-11T20:25:11.745Z,101211.36
2018-04-11T20:27:38.654Z,101203.44
2018-04-11T20:30:05.624Z,101202.36
2018-04-11T20:32:33.253Z,101197.41
2018-04-11T20:35:00.312Z,101196.57
2018-04-11T20:37:27.182Z,101197.56
2018-04-11T20:39:54.805Z,101206.22
2018-04-11T20:42:21.865Z,101204.27
2018-04-11T20:44:52.669Z,101213.89
2018-04-11T20:47:19.583Z,101226.11
2018-04-11T20:49:46.856Z,101221.69
2018-04-11T20:52:13.784Z,101220.75
2018-04-11T20:54:40.657Z,101221.25
2018-04-11T20:57:07.669Z,101202.78
2018-04-11T20:59:35.280Z,101207.27
2018-04-11T21:02:02.211Z,101194.28
2018-04-11T21:04:29.170Z,101201.42
2018-04-11T21:06:56.090Z,101196.50
2018-04-11T21:09:22.965Z,101198.39
2018-04-11T21:11:49.971Z,101196.37
2018-04-11T21:14:16.918Z,101178.14
2018-04-11T21:16:43.845Z,101174.43
2018-04-11T21:19:11.577Z,101168.53
2018-04-11T21:21:38.462Z,101171.00
2018-04-11T21:24:06.074Z,101166.98
2018-04-11T21:26:33.216Z,101159.84
2018-04-11T21:29:00.088Z,101161.30
2018-04-11T21:31:26.990Z,101154.80
2018-04-11T21:33:54.026Z,101151.27
2018-04-11T21:36:20.947Z,101150.72
2018-04-11T21:38:48.566Z,101148.77
2018-04-11T21:41:15.504Z,101138.69
2018-04-11T21:43:42.382Z,101132.75
2018-04-11T21:46:09.264Z,101123.73
2018-04-11T21:48:37.021Z,101125.13
2018-04-11T21:51:04.648Z,101108.17
2018-04-11T21:53:31.964Z,101099.00
2018-04-11T21:55:59.066Z,101098.44
2018-04-11T21:58:25.982Z,101112.14
2018-04-11T22:00:52.871Z,101118.45
2018-04-11T22:03:20.713Z,101121.16
2018-04-11T22:05:47.594Z,101132.08
2018-04-11T22:08:15.209Z,101130.59
2018-04-11T22:10:42.106Z,101124.69
2018-04-11T22:13:09.715Z,101120.36
2018-04-11T22:15:36.641Z,101116.31
2018-04-11T22:18:03.694Z,101109.67
2018-04-11T22:20:30.615Z,101095.91
2018-04-11T22:22:57.506Z,101098.84
2018-04-11T22:25:24.449Z,101103.64
2018-04-11T22:27:51.342Z,101103.18
2018-04-11T22:30:18.971Z,101106.11
2018-04-11T22:32:45.925Z,101124.16
2018-04-11T22:35:12.834Z,101114.83
2018-04-11T22:37:39.702Z,101102.16
2018-04-11T22:40:06.886Z,101106.79
2018-04-11T22:42:34.547Z,101106.91
2018-04-11T22:45:01.417Z,101117.14
2018-04-11T22:47:28.539Z,101123.05
2018-04-11T22:49:55.454Z,101120.27
2018-04-11T22:52:22.341Z,101103.08
2018-04-11T22:54:50.121Z,101108.36
2018-04-11T22:57:17.060Z,101106.41
2018-04-11T22:59:43.969Z,101112.27
2018-04-11T23:02:10.982Z,101106.76
2018-04-11T23:04:37.892Z,101110.94
2018-04-11T23:07:05.583Z,101104.44
2018-04-11T23:09:32.618Z,101112.54
2018-04-11T23:11:59.540Z,101106.91
2018-04-11T23:14:26.506Z,101103.95
2018-04-11T23:16:53.668Z,101102.69
2018-04-11T23:19:20.576Z,101088.88
2018-04-11T23:21:47.446Z,101080.66
2018-04-11T23:24:15.235Z,101073.05
2018-04-11T23:26:42.096Z,101071.66
2018-04-11T23:29:08.963Z,101079.48
2018-04-11T23:31:36.747Z,101085.20
2018-04-11T23:34:03.610Z,101078.40
2018-04-11T23:36:31.237Z,101075.16
2018-04-11T23:38:58.216Z,101066.59
2018-04-11T23:41:25.863Z,101073.55
2018-04-11T23:43:52.779Z,101065.58
2018-04-11T23:46:20.443Z,101058.94
2018-04-11T23:48:47.359Z,101050.44
2018-04-11T23:51:14.271Z,101055.07
2018-04-11T23:53:41.181Z,101053.43
2018-04-11T23:56:08.111Z,101055.19
2018-04-11T23:58:35.070Z,101074.69
